createdAt,value
2019-05-07T00:00:13.403Z,7.10
2019-05-07T00:03:22.110Z,7.10
2019-05-07T00:06:32.562Z,7.10
2019-05-07T00:09:43.015Z,7.00
2019-05-07T00:13:02.507Z,7.00
2019-05-07T00:16:12.797Z,7.00
2019-05-07T00:19:23.099Z,7.00
2019-05-07T00:22:32.665Z,7.10
2019-05-07T00:25:52.947Z,7.10
2019-05-07T00:29:02.266Z,7.10
2019-05-07T00:32:22.322Z,7.10
2019-05-07T00:35:35.040Z,7.10
2019-05-07T00:39:34.431Z,7.10
2019-05-07T00:43:02.673Z,7.10
2019-05-07T00:46:22.499Z,7.00
2019-05-07T00:49:42.558Z,6.90
2019-05-07T00:53:05.294Z,6.90
2019-05-07T00:56:13.911Z,6.80
2019-05-07T00:59:24.018Z,6.80
2019-05-07T01:02:32.651Z,6.80
2019-05-07T01:05:43.203Z,6.70
2019-05-07T01:08:52.561Z,6.70
2019-05-07T01:12:03.159Z,6.70
2019-05-07T01:15:12.857Z,6.70
2019-05-07T01:18:23.310Z,6.50
2019-05-07T01:21:32.633Z,6.60
2019-05-07T01:24:52.814Z,6.60
2019-05-07T01:28:02.602Z,6.60
2019-05-07T01:31:12.556Z,6.60
2019-05-07T01:34:32.132Z,6.60
2019-05-07T01:37:42.190Z,6.60
2019-05-07T01:41:02.713Z,6.50
2019-05-07T01:44:12.825Z,6.50
2019-05-07T01:47:23.624Z,6.50
2019-05-07T01:50:32.326Z,6.50
2019-05-07T01:53:42.973Z,6.40
2019-05-07T01:57:02.898Z,6.40
2019-05-07T02:00:13.084Z,6.40
2019-05-07T02:03:32.788Z,6.50
2019-05-07T02:06:59.213Z,6.40
2019-05-07T02:10:22.740Z,6.50
2019-05-07T02:13:33.732Z,6.40
2019-05-07T02:16:41.985Z,6.50
2019-05-07T02:19:52.616Z,6.50
2019-05-07T02:23:02.823Z,6.50
2019-05-07T02:26:13.325Z,6.50
2019-05-07T02:29:22.788Z,6.40
2019-05-07T02:32:43.183Z,6.40
2019-05-07T02:35:53.422Z,6.40
2019-05-07T02:39:18.094Z,6.40
2019-05-07T02:42:26.874Z,6.40
2019-05-07T02:46:20.572Z,6.40
2019-05-07T02:49:45.631Z,6.40
2019-05-07T02:52:59.777Z,6.40
2019-05-07T02:56:26.547Z,6.30
2019-05-07T02:59:35.212Z,6.30
2019-05-07T03:02:43.946Z,6.30
2019-05-07T03:05:53.796Z,6.40
2019-05-07T03:09:03.253Z,6.50
2019-05-07T03:12:13.123Z,6.40
2019-05-07T03:15:24.253Z,6.40
2019-05-07T03:18:33.468Z,6.40
2019-05-07T03:21:55.372Z,6.30
2019-05-07T03:25:10.231Z,6.30
2019-05-07T03:28:53.622Z,6.20
2019-05-07T03:32:37.809Z,6.20
2019-05-07T03:35:48.958Z,6.20
2019-05-07T03:38:57.624Z,6.20
2019-05-07T03:42:06.273Z,6.20
2019-05-07T03:45:35.074Z,6.20
2019-05-07T03:49:04.770Z,6.10
2019-05-07T03:52:14.606Z,6.20
2019-05-07T03:55:23.504Z,6.20
2019-05-07T03:58:34.002Z,6.20
2019-05-07T04:01:46.677Z,6.20
2019-05-07T04:05:06.137Z,6.20
2019-05-07T04:08:24.921Z,6.20
2019-05-07T04:11:33.842Z,6.10
2019-05-07T04:14:53.591Z,6.20
2019-05-07T04:18:03.626Z,6.20
2019-05-07T04:21:13.972Z,6.20
2019-05-07T04:24:42.905Z,6.20
2019-05-07T04:28:06.736Z,6.20
2019-05-07T04:31:15.237Z,6.20
2019-05-07T04:34:44.517Z,6.20
2019-05-07T04:37:53.495Z,6.20
2019-05-07T04:41:03.774Z,6.20
2019-05-07T04:44:14.401Z,6.20
2019-05-07T04:47:38.687Z,6.30
2019-05-07T04:50:42.981Z,6.30
2019-05-07T04:53:46.683Z,6.30
2019-05-07T04:56:55.286Z,6.30
2019-05-07T05:00:05.269Z,6.40
2019-05-07T05:03:23.823Z,6.50
2019-05-07T05:06:42.835Z,6.50
2019-05-07T05:09:53.166Z,6.50
2019-05-07T05:13:13.087Z,6.60
2019-05-07T05:16:25.996Z,6.70
2019-05-07T05:19:34.693Z,6.80
2019-05-07T05:22:53.210Z,7.00
2019-05-07T05:26:02.012Z,7.20
2019-05-07T05:29:12.103Z,7.50
2019-05-07T05:32:22.693Z,7.80
2019-05-07T05:35:32.080Z,8.10
2019-05-07T05:38:42.330Z,8.50
2019-05-07T05:42:09.286Z,8.80
2019-05-07T05:45:34.236Z,9.00
2019-05-07T05:48:43.127Z,9.40
2019-05-07T05:52:12.472Z,9.90
2019-05-07T05:55:22.674Z,10.30
2019-05-07T05:58:56.274Z,10.60
2019-05-07T06:02:23.265Z,10.80
2019-05-07T06:05:55.017Z,11.10
2019-05-07T06:09:21.906Z,11.30
2019-05-07T06:13:07.985Z,11.60
2019-05-07T06:16:21.946Z,11.90
2019-05-07T06:19:36.416Z,12.10
2019-05-07T06:23:35.736Z,12.30
2019-05-07T06:27:02.963Z,12.50
2019-05-07T06:30:12.861Z,12.60
2019-05-07T06:33:22.928Z,12.60
2019-05-07T06:36:33.468Z,12.40
2019-05-07T06:39:52.961Z,12.40
2019-05-07T06:43:21.841Z,12.20
2019-05-07T06:46:48.850Z,12.00
2019-05-07T06:49:58.232Z,11.80
2019-05-07T06:53:05.340Z,11.60
2019-05-07T06:56:24.175Z,11.50
2019-05-07T06:59:42.195Z,11.50
2019-05-07T07:03:17.867Z,11.40
2019-05-07T07:06:29.433Z,11.30
2019-05-07T07:09:53.909Z,11.50
2019-05-07T07:13:02.389Z,11.70
2019-05-07T07:16:12.702Z,11.80
2019-05-07T07:19:32.540Z,11.70
2019-05-07T07:22:42.584Z,11.80
2019-05-07T07:25:52.261Z,11.70
2019-05-07T07:29:02.033Z,11.70
2019-05-07T07:32:12.743Z,11.70
2019-05-07T07:35:22.538Z,11.60
2019-05-07T07:38:35.590Z,11.50
2019-05-07T07:41:48.145Z,11.50
2019-05-07T07:45:49.032Z,11.70
2019-05-07T07:49:07.810Z,11.90
2019-05-07T07:52:06.422Z,11.70
2019-05-07T07:55:17.786Z,11.70
2019-05-07T07:58:48.229Z,11.80
2019-05-07T08:02:05.685Z,11.70
2019-05-07T08:05:33.749Z,11.60
2019-05-07T08:08:42.538Z,11.50
2019-05-07T08:11:52.689Z,11.50
2019-05-07T08:15:14.767Z,11.50
2019-05-07T08:18:13.403Z,11.30
2019-05-07T08:21:22.896Z,11.40
2019-05-07T08:24:42.645Z,11.60
2019-05-07T08:27:53.083Z,11.90
2019-05-07T08:31:19.199Z,12.00
2019-05-07T08:34:42.873Z,12.10
2019-05-07T08:37:51.856Z,12.30
2019-05-07T08:41:02.327Z,12.30
2019-05-07T08:44:15.790Z,12.20
2019-05-07T08:47:34.527Z,12.20
2019-05-07T08:50:43.089Z,12.30
2019-05-07T08:54:05.664Z,12.30
2019-05-07T08:57:24.693Z,12.50
2019-05-07T09:00:33.195Z,12.70
2019-05-07T09:03:44.744Z,12.70
2019-05-07T09:06:53.279Z,12.50
2019-05-07T09:10:02.438Z,12.30
2019-05-07T09:13:12.572Z,12.10
2019-05-07T09:16:23.260Z,12.20
2019-05-07T09:19:32.394Z,12.40
2019-05-07T09:22:42.698Z,12.40
2019-05-07T09:25:52.246Z,12.50
2019-05-07T09:29:19.473Z,12.40
2019-05-07T09:32:37.154Z,12.40
2019-05-07T09:36:07.086Z,12.50
2019-05-07T09:39:32.312Z,12.40
2019-05-07T09:42:42.196Z,12.50
2019-05-07T09:45:52.323Z,12.50
2019-05-07T09:49:02.941Z,12.50
2019-05-07T09:52:12.301Z,12.60
2019-05-07T09:55:23.178Z,12.70
2019-05-07T09:58:36.562Z,12.80
2019-05-07T10:01:42.006Z,12.80
2019-05-07T10:04:52.651Z,13.00
2019-05-07T10:08:01.804Z,13.10
2019-05-07T10:11:12.335Z,13.30
2019-05-07T10:14:22.407Z,13.50
2019-05-07T10:17:45.880Z,13.80
2019-05-07T10:20:54.548Z,13.80
2019-05-07T10:24:03.172Z,13.90
2019-05-07T10:27:12.801Z,13.90
2019-05-07T10:30:21.965Z,14.20
2019-05-07T10:33:32.207Z,14.40
2019-05-07T10:36:52.311Z,14.70
2019-05-07T10:40:03.006Z,14.80
2019-05-07T10:43:11.659Z,14.50
2019-05-07T10:46:28.053Z,14.50
2019-05-07T10:49:42.828Z,14.50
2019-05-07T10:52:52.843Z,14.40
2019-05-07T10:56:02.517Z,14.30
2019-05-07T10:59:12.229Z,14.00
2019-05-07T11:02:26.226Z,14.00
2019-05-07T11:05:34.753Z,14.00
2019-05-07T11:08:44.597Z,13.80
2019-05-07T11:11:53.193Z,13.90
2019-05-07T11:15:02.259Z,14.00
2019-05-07T11:18:26.076Z,14.00
2019-05-07T11:21:34.637Z,14.20
2019-05-07T11:24:42.767Z,14.20
2019-05-07T11:27:52.387Z,14.30
2019-05-07T11:31:02.089Z,14.20
2019-05-07T11:34:11.916Z,14.00
2019-05-07T11:37:22.566Z,14.20
2019-05-07T11:40:34.588Z,14.20
2019-05-07T11:44:02.643Z,14.10
2019-05-07T11:47:29.297Z,13.90
2019-05-07T11:51:01.409Z,13.80
2019-05-07T11:54:12.383Z,13.80
2019-05-07T11:57:22.080Z,13.60
2019-05-07T12:00:57.430Z,13.70
2019-05-07T12:04:06.234Z,14.10
2019-05-07T12:07:14.780Z,14.70
2019-05-07T12:10:23.546Z,15.10
2019-05-07T12:13:32.448Z,15.20
2019-05-07T12:16:42.661Z,15.50
2019-05-07T12:19:52.654Z,15.40
2019-05-07T12:23:02.857Z,15.60
2019-05-07T12:26:12.765Z,15.60
2019-05-07T12:29:32.368Z,15.70
2019-05-07T12:32:49.096Z,16.30
2019-05-07T12:36:22.786Z,16.90
2019-05-07T12:39:31.959Z,17.30
2019-05-07T12:42:42.419Z,18.10
2019-05-07T12:45:52.418Z,19.20
2019-05-07T12:49:03.162Z,19.50
2019-05-07T12:52:27.051Z,19.90
2019-05-07T12:55:56.799Z,20.40
2019-05-07T12:59:05.894Z,21.50
2019-05-07T13:02:42.057Z,22.10
2019-05-07T13:05:52.117Z,21.90
2019-05-07T13:09:00.264Z,20.90
2019-05-07T13:12:19.214Z,20.20
2019-05-07T13:15:28.433Z,19.50
2019-05-07T13:18:47.288Z,18.20
2019-05-07T13:21:56.085Z,17.90
2019-05-07T13:25:03.240Z,17.40
2019-05-07T13:28:11.947Z,16.50
2019-05-07T13:31:22.857Z,16.20
2019-05-07T13:34:42.694Z,15.90
2019-05-07T13:38:11.827Z,15.20
2019-05-07T13:41:40.207Z,14.80
2019-05-07T13:44:56.751Z,14.40
2019-05-07T13:48:23.770Z,14.70
2019-05-07T13:51:33.886Z,14.80
2019-05-07T13:54:42.619Z,14.80
2019-05-07T13:57:52.412Z,14.40
2019-05-07T14:01:39.290Z,14.20
2019-05-07T14:05:04.959Z,14.20
2019-05-07T14:08:14.213Z,14.40
2019-05-07T14:11:23.055Z,14.70
2019-05-07T14:14:34.524Z,14.90
2019-05-07T14:17:42.132Z,14.80
2019-05-07T14:20:50.781Z,14.90
2019-05-07T14:23:59.402Z,14.90
2019-05-07T14:27:08.191Z,14.80
2019-05-07T14:30:17.331Z,14.70
2019-05-07T14:33:43.922Z,14.50
2019-05-07T14:37:01.946Z,14.50
2019-05-07T14:40:12.895Z,14.50
2019-05-07T14:43:43.631Z,14.30
2019-05-07T14:47:14.849Z,14.30
2019-05-07T14:50:23.521Z,14.20
2019-05-07T14:53:32.894Z,14.30
2019-05-07T14:56:51.896Z,14.40
2019-05-07T15:00:03.263Z,14.40
2019-05-07T15:03:12.629Z,14.40
2019-05-07T15:06:21.970Z,14.30
2019-05-07T15:09:32.107Z,14.30
2019-05-07T15:12:52.194Z,14.40
2019-05-07T15:16:03.119Z,14.40
2019-05-07T15:19:12.451Z,14.50
2019-05-07T15:22:26.718Z,14.30
2019-05-07T15:25:35.381Z,14.40
2019-05-07T15:28:46.066Z,14.30
2019-05-07T15:31:59.527Z,14.40
2019-05-07T15:35:09.481Z,14.50
2019-05-07T15:38:18.205Z,14.50
2019-05-07T15:41:26.891Z,14.30
2019-05-07T15:44:35.643Z,14.40
2019-05-07T15:47:47.858Z,14.40
2019-05-07T15:50:56.506Z,14.30
2019-05-07T15:54:05.329Z,14.20
2019-05-07T15:57:17.038Z,14.10
2019-05-07T16:00:37.596Z,13.90
2019-05-07T16:03:46.778Z,13.90
2019-05-07T16:06:55.874Z,14.00
2019-05-07T16:10:04.511Z,14.00
2019-05-07T16:13:15.576Z,14.00
2019-05-07T16:16:24.116Z,14.10
2019-05-07T16:19:32.783Z,14.00
2019-05-07T16:22:44.791Z,14.10
2019-05-07T16:25:55.198Z,14.10
2019-05-07T16:29:04.617Z,14.00
2019-05-07T16:32:13.614Z,13.90
2019-05-07T16:35:22.821Z,13.80
2019-05-07T16:38:32.751Z,13.90
2019-05-07T16:41:42.341Z,13.90
2019-05-07T16:44:52.189Z,13.90
2019-05-07T16:48:02.983Z,13.90
2019-05-07T16:51:09.544Z,13.90
2019-05-07T16:54:18.325Z,13.80
2019-05-07T16:57:39.122Z,13.80
2019-05-07T17:00:52.869Z,13.80
2019-05-07T17:04:18.948Z,13.60
2019-05-07T17:07:27.475Z,13.60
2019-05-07T17:10:36.279Z,13.60
2019-05-07T17:13:44.914Z,13.50
2019-05-07T17:16:53.559Z,13.60
2019-05-07T17:20:02.947Z,13.40
2019-05-07T17:23:22.651Z,13.50
2019-05-07T17:26:31.433Z,13.30
2019-05-07T17:29:40.130Z,13.30
2019-05-07T17:32:58.985Z,13.20
2019-05-07T17:36:07.541Z,13.00
2019-05-07T17:39:16.300Z,13.00
2019-05-07T17:42:24.993Z,12.90
2019-05-07T17:45:33.647Z,12.90
2019-05-07T17:48:42.801Z,12.90
2019-05-07T17:51:52.611Z,12.90
2019-05-07T17:55:03.011Z,13.00
2019-05-07T17:58:12.880Z,12.90
2019-05-07T18:01:53.639Z,12.90
2019-05-07T18:05:04.213Z,13.00
2019-05-07T18:08:12.914Z,13.00
2019-05-07T18:11:24.175Z,13.00
2019-05-07T18:14:32.314Z,12.90
2019-05-07T18:17:46.973Z,12.90
2019-05-07T18:20:55.732Z,12.80
2019-05-07T18:24:16.811Z,12.70
2019-05-07T18:27:25.796Z,12.70
2019-05-07T18:30:34.495Z,12.70
2019-05-07T18:33:48.616Z,12.70
2019-05-07T18:36:57.151Z,12.60
2019-05-07T18:40:14.177Z,12.60
2019-05-07T18:43:23.020Z,12.50
2019-05-07T18:46:32.699Z,12.40
2019-05-07T18:49:42.903Z,12.30
2019-05-07T18:52:52.312Z,12.20
2019-05-07T18:56:01.700Z,12.10
2019-05-07T18:59:12.184Z,12.10
2019-05-07T19:02:22.564Z,11.70
2019-05-07T19:05:32.415Z,11.60
2019-05-07T19:08:42.265Z,11.60
2019-05-07T19:11:52.254Z,11.60
2019-05-07T19:15:12.614Z,11.60
2019-05-07T19:18:22.986Z,11.50
2019-05-07T19:21:42.371Z,11.50
2019-05-07T19:25:03.009Z,11.40
2019-05-07T19:28:28.349Z,11.30
2019-05-07T19:31:37.059Z,11.20
2019-05-07T19:34:45.724Z,11.00
2019-05-07T19:37:54.261Z,11.00
2019-05-07T19:41:02.910Z,10.80
2019-05-07T19:44:12.676Z,10.80
2019-05-07T19:47:23.321Z,10.80
2019-05-07T19:50:42.125Z,10.80
2019-05-07T19:53:52.577Z,10.70
2019-05-07T19:57:02.743Z,10.70
2019-05-07T20:00:12.872Z,10.60
2019-05-07T20:03:22.325Z,10.60
2019-05-07T20:06:42.898Z,10.60
2019-05-07T20:09:52.440Z,10.50
2019-05-07T20:13:03.067Z,10.40
2019-05-07T20:16:15.354Z,10.50
2019-05-07T20:19:24.115Z,10.50
2019-05-07T20:22:33.309Z,10.50
2019-05-07T20:25:42.160Z,10.50
2019-05-07T20:28:52.555Z,10.50
2019-05-07T20:32:01.230Z,10.50
2019-05-07T20:35:10.001Z,10.40
2019-05-07T20:38:18.774Z,10.30
2019-05-07T20:41:27.623Z,10.40
2019-05-07T20:44:36.302Z,10.50
2019-05-07T20:47:44.968Z,10.60
2019-05-07T20:50:53.620Z,10.60
2019-05-07T20:54:39.352Z,10.70
2019-05-07T20:57:50.985Z,10.70
2019-05-07T21:00:58.611Z,10.70
2019-05-07T21:04:07.255Z,10.70
2019-05-07T21:07:15.888Z,10.70
2019-05-07T21:10:24.687Z,10.80
2019-05-07T21:13:34.961Z,10.80
2019-05-07T21:16:43.802Z,10.80
2019-05-07T21:19:52.470Z,10.80
2019-05-07T21:23:02.691Z,10.70
2019-05-07T21:26:13.120Z,10.70
2019-05-07T21:29:21.830Z,10.80
2019-05-07T21:32:42.117Z,10.70
2019-05-07T21:35:52.281Z,10.60
2019-05-07T21:39:02.278Z,10.50
2019-05-07T21:42:13.848Z,10.40
2019-05-07T21:45:23.607Z,10.50
2019-05-07T21:48:32.754Z,10.60
2019-05-07T21:51:40.797Z,10.50
2019-05-07T21:55:02.366Z,10.60
2019-05-07T21:58:35.913Z,10.50
2019-05-07T22:01:46.777Z,10.50
2019-05-07T22:05:11.912Z,10.50
2019-05-07T22:08:21.918Z,10.30
2019-05-07T22:11:32.311Z,10.40
2019-05-07T22:14:41.136Z,10.40
2019-05-07T22:18:00.056Z,10.30
2019-05-07T22:21:08.691Z,10.20
2019-05-07T22:24:17.335Z,10.20
2019-05-07T22:27:25.968Z,10.20
2019-05-07T22:30:45.410Z,10.10
2019-05-07T22:34:25.154Z,10.10
2019-05-07T22:37:33.854Z,10.10
2019-05-07T22:40:43.417Z,10.10
2019-05-07T22:44:02.665Z,9.90
2019-05-07T22:47:22.673Z,9.90
2019-05-07T22:50:33.183Z,9.90
2019-05-07T22:53:43.357Z,9.80
2019-05-07T22:57:17.522Z,9.70
2019-05-07T23:00:32.239Z,9.80
2019-05-07T23:03:42.924Z,9.80
2019-05-07T23:06:52.838Z,9.60
2019-05-07T23:10:02.859Z,9.50
2019-05-07T23:13:13.029Z,9.40
2019-05-07T23:16:23.129Z,9.50
2019-05-07T23:19:32.721Z,9.50
2019-05-07T23:22:42.838Z,9.40
2019-05-07T23:25:52.389Z,9.30
2019-05-07T23:29:11.890Z,9.20
2019-05-07T23:32:32.984Z,9.20
2019-05-07T23:35:42.182Z,9.00
2019-05-07T23:38:52.052Z,8.80
2019-05-07T23:42:07.311Z,8.90
2019-05-07T23:45:16.818Z,8.80
2019-05-07T23:48:25.578Z,8.90
2019-05-07T23:51:34.222Z,8.90
2019-05-07T23:54:42.860Z,8.90
2019-05-07T23:57:52.501Z,8.90
